Time;durP1;ratioP1;P1;durP2;ratioP2;P2;SDS_P1;SDS_P2;PMS_P1;PMS_P2;Temp;Humidity;BMP_temperature;BMP_pressure;BME280_temperature;BME280_humidity;BME280_pressure;Samples;Min_cycle;Max_cycle;Signal;HPM_P1;HPM_P2
2023/07/18 00:01:41;;;;;;;6.03;2.92;;;17.90;99.90;;;;;;5067889;28;20213;-63
2023/07/18 00:04:09;;;;;;;3.60;3.30;;;17.80;99.90;;;;;;5052119;28;20214;-64
2023/07/18 00:06:40;;;;;;;5.53;3.25;;;17.80;99.90;;;;;;5068389;28;20202;-64
2023/07/18 00:09:08;;;;;;;3.90;3.40;;;17.70;99.90;;;;;;5075661;28;20201;-64
2023/07/18 00:11:36;;;;;;;6.78;3.22;;;17.70;99.90;;;;;;5074373;28;20225;-63
2023/07/18 00:14:04;;;;;;;3.70;3.20;;;17.60;99.90;;;;;;5069810;28;20205;-63
2023/07/18 00:16:32;;;;;;;4.72;2.92;;;17.50;99.90;;;;;;5071101;28;20235;-64
2023/07/18 00:19:02;;;;;;;5.88;3.13;;;17.50;99.90;;;;;;5071733;28;20229;-64
2023/07/18 00:21:31;;;;;;;5.75;3.28;;;17.40;99.90;;;;;;5072316;28;20217;-65
2023/07/18 00:23:59;;;;;;;3.10;2.75;;;17.50;99.90;;;;;;5070137;28;20235;-64
2023/07/18 00:26:27;;;;;;;5.78;2.92;;;17.40;99.90;;;;;;5071100;28;20224;-64
2023/07/18 00:28:55;;;;;;;3.28;2.97;;;17.40;99.90;;;;;;5071051;28;20255;-64
2023/07/18 00:31:23;;;;;;;5.25;3.40;;;17.40;99.90;;;;;;5072960;28;20705;-64
2023/07/18 00:33:52;;;;;;;7.13;3.10;;;17.30;99.90;;;;;;5075058;28;20198;-63
2023/07/18 00:36:21;;;;;;;7.07;3.42;;;17.30;99.90;;;;;;5081379;28;20202;-63
2023/07/18 00:38:50;;;;;;;8.48;3.70;;;17.20;99.90;;;;;;5082125;28;20206;-63
2023/07/18 00:41:18;;;;;;;4.80;3.03;;;17.20;99.90;;;;;;5073780;28;20249;-63
2023/07/18 00:43:46;;;;;;;4.72;2.97;;;17.10;99.90;;;;;;5082520;28;20236;-64
2023/07/18 00:46:15;;;;;;;4.35;2.88;;;17.20;99.90;;;;;;5084078;28;20244;-63
2023/07/18 00:48:43;;;;;;;8.90;3.60;;;17.20;99.90;;;;;;5075234;28;20213;-64
2023/07/18 00:51:11;;;;;;;5.35;3.78;;;17.10;99.90;;;;;;5073508;28;20247;-64
2023/07/18 00:53:40;;;;;;;6.32;3.35;;;17.00;99.90;;;;;;5073635;28;20212;-64
2023/07/18 00:56:09;;;;;;;3.50;2.80;;;17.00;99.90;;;;;;5073678;28;20198;-63
2023/07/18 00:58:37;;;;;;;5.80;2.85;;;17.00;99.90;;;;;;5081516;28;20205;-64
2023/07/18 01:01:06;;;;;;;4.75;3.05;;;17.00;99.90;;;;;;5065185;28;20233;-64
2023/07/18 01:03:34;;;;;;;5.15;3.38;;;16.90;99.90;;;;;;5073892;28;20245;-64
2023/07/18 01:06:03;;;;;;;3.90;3.55;;;16.90;99.90;;;;;;5073512;28;20234;-64
2023/07/18 01:08:31;;;;;;;4.57;3.38;;;16.90;99.90;;;;;;5075658;28;20200;-64
2023/07/18 01:11:00;;;;;;;7.18;3.92;;;16.90;99.90;;;;;;5083878;28;20244;-64
2023/07/18 01:13:28;;;;;;;4.10;3.50;;;16.80;99.90;;;;;;5079605;28;20227;-62
2023/07/18 01:15:56;;;;;;;5.40;3.42;;;16.70;99.90;;;;;;5074466;28;20206;-63
2023/07/18 01:18:24;;;;;;;7.53;3.58;;;16.70;99.90;;;;;;5073357;28;20201;-64
2023/07/18 01:20:52;;;;;;;5.15;3.75;;;16.70;99.90;;;;;;5072587;28;20218;-63
2023/07/18 01:23:23;;;;;;;6.18;3.63;;;16.60;99.90;;;;;;5073585;28;20222;-63
2023/07/18 01:25:52;;;;;;;3.97;3.50;;;16.70;99.90;;;;;;5072992;28;20233;-64
2023/07/18 01:28:20;;;;;;;5.43;3.60;;;16.60;99.90;;;;;;5072893;28;20222;-64
2023/07/18 01:30:48;;;;;;;5.85;3.45;;;16.50;99.90;;;;;;5081491;28;20701;-62
2023/07/18 01:33:17;;;;;;;6.15;3.35;;;16.50;99.90;;;;;;5072132;28;20440;-64
2023/07/18 01:35:46;;;;;;;7.43;3.33;;;16.40;99.90;;;;;;5075783;28;20232;-62
2023/07/18 01:38:14;;;;;;;7.72;3.83;;;16.40;99.90;;;;;;5073001;28;20224;-64
2023/07/18 01:40:43;;;;;;;9.70;3.63;;;16.40;99.90;;;;;;5072509;28;20214;-63
2023/07/18 01:43:11;;;;;;;4.18;3.30;;;16.40;99.90;;;;;;5072690;28;20225;-62
2023/07/18 01:45:39;;;;;;;6.93;3.05;;;16.30;99.90;;;;;;5071974;28;20209;-63
2023/07/18 01:48:07;;;;;;;5.75;3.42;;;16.30;99.90;;;;;;5072732;28;20206;-63
2023/07/18 01:50:35;;;;;;;4.22;3.25;;;16.30;99.90;;;;;;5072755;28;20224;-62
2023/07/18 01:53:03;;;;;;;4.53;3.72;;;16.30;99.90;;;;;;5080330;28;20240;-63
2023/07/18 01:55:31;;;;;;;5.80;3.20;;;16.30;99.90;;;;;;5071763;28;20197;-64
2023/07/18 01:58:00;;;;;;;4.68;3.47;;;16.20;99.90;;;;;;5072682;28;20202;-64
2023/07/18 02:00:28;;;;;;;5.15;3.20;;;16.20;99.90;;;;;;5077044;22;20610;-75
2023/07/18 02:02:56;;;;;;;5.80;3.15;;;16.10;99.90;;;;;;5062562;28;20263;-75
2023/07/18 02:05:24;;;;;;;10.15;3.50;;;16.00;99.90;;;;;;5065697;28;20225;-75
2023/07/18 02:07:52;;;;;;;8.07;3.58;;;16.00;99.90;;;;;;5055883;28;20259;-76
2023/07/18 02:10:21;;;;;;;4.00;3.30;;;16.00;99.90;;;;;;5059746;28;20217;-76
2023/07/18 02:12:50;;;;;;;4.03;3.50;;;15.90;99.90;;;;;;5063069;28;20570;-76
2023/07/18 02:15:19;;;;;;;5.63;3.33;;;15.90;99.90;;;;;;5064912;28;20615;-75
2023/07/18 02:17:48;;;;;;;10.60;3.40;;;15.90;99.90;;;;;;5055899;28;20202;-75
2023/07/18 02:20:16;;;;;;;5.78;3.25;;;15.90;99.90;;;;;;5067621;28;20201;-75
2023/07/18 02:22:44;;;;;;;4.82;3.22;;;15.80;99.90;;;;;;5060565;28;20197;-75
2023/07/18 02:25:12;;;;;;;5.25;3.80;;;15.80;99.90;;;;;;5059261;28;20221;-76
2023/07/18 02:27:41;;;;;;;5.75;3.50;;;15.70;99.90;;;;;;5063804;28;20643;-76
2023/07/18 02:30:09;;;;;;;6.30;3.53;;;15.70;99.90;;;;;;5052537;28;20285;-76
2023/07/18 02:32:39;;;;;;;6.90;3.65;;;15.80;99.90;;;;;;5059320;28;20203;-75
2023/07/18 02:35:08;;;;;;;6.00;3.25;;;15.70;99.90;;;;;;5063866;28;20201;-75
2023/07/18 02:37:36;;;;;;;9.90;3.38;;;15.70;99.90;;;;;;5063423;28;20197;-75
2023/07/18 02:40:08;;;;;;;4.53;3.17;;;15.70;99.90;;;;;;5068670;28;20202;-74
2023/07/18 02:42:36;;;;;;;3.42;3.13;;;15.70;99.90;;;;;;5059222;28;20201;-75
2023/07/18 02:45:06;;;;;;;4.90;3.88;;;15.60;99.90;;;;;;5060092;28;20225;-76
2023/07/18 02:47:34;;;;;;;6.00;3.72;;;15.60;99.90;;;;;;5066931;28;20212;-75
2023/07/18 02:50:05;;;;;;;4.80;3.70;;;15.60;99.90;;;;;;5054950;28;20204;-75
2023/07/18 02:52:33;;;;;;;7.35;3.33;;;15.60;99.90;;;;;;5064707;28;20233;-75
2023/07/18 02:55:01;;;;;;;6.18;3.30;;;15.50;99.90;;;;;;5061954;28;20266;-76
2023/07/18 02:57:29;;;;;;;4.28;3.70;;;15.50;99.90;;;;;;5052558;22;20315;-60
2023/07/18 02:59:57;;;;;;;5.57;3.30;;;15.50;99.90;;;;;;5037015;28;20689;-60
2023/07/18 03:02:28;;;;;;;6.03;3.42;;;15.40;99.90;;;;;;5051572;28;20198;-61
2023/07/18 03:04:56;;;;;;;3.50;3.20;;;15.40;99.90;;;;;;5043271;28;20272;-61
2023/07/18 03:07:26;;;;;;;7.18;3.30;;;15.40;99.90;;;;;;5051075;28;20202;-60
2023/07/18 03:09:53;;;;;;;5.30;3.88;;;15.40;99.90;;;;;;5051341;28;20313;-59
2023/07/18 03:12:22;;;;;;;3.90;3.40;;;15.40;99.90;;;;;;5046537;28;20228;-59
2023/07/18 03:14:50;;;;;;;4.82;3.25;;;15.40;99.90;;;;;;5040503;28;20201;-60
2023/07/18 03:17:17;;;;;;;4.18;3.30;;;15.40;99.90;;;;;;5049284;28;20244;-60
2023/07/18 03:19:45;;;;;;;2.95;2.72;;;15.40;99.90;;;;;;5050535;28;20240;-60
2023/07/18 03:22:14;;;;;;;4.60;3.33;;;15.30;99.90;;;;;;5035911;28;20230;-60
2023/07/18 03:24:43;;;;;;;6.80;3.90;;;15.30;99.90;;;;;;5043086;28;20222;-60
2023/07/18 03:27:12;;;;;;;4.07;3.40;;;15.30;99.90;;;;;;5043630;28;20688;-60
2023/07/18 03:29:40;;;;;;;8.07;3.78;;;15.20;99.90;;;;;;5035474;28;20206;-60
2023/07/18 03:32:09;;;;;;;6.80;3.83;;;15.30;99.90;;;;;;5048089;28;20202;-60
2023/07/18 03:34:37;;;;;;;8.10;3.47;;;15.30;99.90;;;;;;5038719;28;20194;-60
2023/07/18 03:37:06;;;;;;;5.45;3.58;;;15.20;99.90;;;;;;5045149;28;20226;-60
2023/07/18 03:39:35;;;;;;;6.35;3.70;;;15.20;99.90;;;;;;5052959;28;20765;-60
2023/07/18 03:42:04;;;;;;;5.80;3.65;;;15.20;99.90;;;;;;5042075;28;20661;-61
2023/07/18 03:44:32;;;;;;;6.80;3.95;;;15.20;99.90;;;;;;5056798;28;20249;-60
2023/07/18 03:47:00;;;;;;;3.65;3.25;;;15.20;99.90;;;;;;5047681;28;20268;-60
2023/07/18 03:49:46;;;;;;;6.35;3.53;;;15.20;99.90;;;;;;5038129;28;20202;-60
2023/07/18 03:52:14;;;;;;;5.53;4.00;;;15.30;99.90;;;;;;5053755;28;20679;-60
2023/07/18 03:54:42;;;;;;;11.32;3.90;;;15.20;99.90;;;;;;5045726;28;20656;-60
2023/07/18 03:57:12;;;;;;;10.43;4.05;;;15.20;99.90;;;;;;5045813;28;20301;-61
2023/07/18 03:59:39;;;;;;;7.97;3.80;;;15.20;99.90;;;;;;5053771;28;20202;-61
2023/07/18 04:02:07;;;;;;;4.60;3.60;;;15.20;99.90;;;;;;5041399;28;20285;-60
2023/07/18 04:04:35;;;;;;;4.03;3.47;;;15.20;99.90;;;;;;5050535;28;20372;-60
2023/07/18 04:07:04;;;;;;;7.22;3.80;;;15.10;99.90;;;;;;5048534;28;20241;-59
2023/07/18 04:09:32;;;;;;;5.57;3.90;;;15.20;99.90;;;;;;5053227;28;20332;-60
2023/07/18 04:12:00;;;;;;;6.28;3.65;;;15.20;99.90;;;;;;5055688;28;20347;-60
2023/07/18 04:14:29;;;;;;;8.23;3.63;;;15.20;99.90;;;;;;5043697;28;20271;-60
2023/07/18 04:16:57;;;;;;;4.43;3.50;;;15.20;99.90;;;;;;5047317;28;20281;-60
2023/07/18 04:19:25;;;;;;;4.93;3.38;;;15.20;99.90;;;;;;5051525;28;20551;-59
2023/07/18 04:21:53;;;;;;;5.65;3.70;;;15.30;99.90;;;;;;5040820;28;20254;-60
2023/07/18 04:24:21;;;;;;;4.20;3.08;;;15.20;99.90;;;;;;5052025;28;20230;-59
2023/07/18 04:26:49;;;;;;;4.55;3.58;;;15.30;99.90;;;;;;5038975;28;20284;-60
2023/07/18 04:29:18;;;;;;;3.90;2.78;;;15.30;99.90;;;;;;5044747;28;20309;-55
2023/07/18 04:31:48;;;;;;;4.20;2.88;;;15.40;99.90;;;;;;5056799;28;20217;-55
2023/07/18 04:34:16;;;;;;;2.65;2.45;;;15.80;99.90;;;;;;5042041;28;20186;-56
2023/07/18 04:36:44;;;;;;;3.38;3.08;;;16.20;99.90;;;;;;5047040;28;20198;-57
2023/07/18 04:39:12;;;;;;;4.25;3.28;;;16.50;99.90;;;;;;5047675;28;20233;-57
2023/07/18 04:41:40;;;;;;;4.13;3.33;;;16.70;99.90;;;;;;5050953;28;20226;-58
2023/07/18 04:44:22;;;;;;;4.55;3.30;;;16.90;99.90;;;;;;5046314;28;20202;-56
2023/07/18 04:46:52;;;;;;;5.57;3.13;;;17.10;99.90;;;;;;5053172;28;20356;-56
2023/07/18 04:49:22;;;;;;;3.78;2.90;;;17.20;99.90;;;;;;5053049;28;20216;-58
2023/07/18 04:51:51;;;;;;;5.03;3.45;;;17.30;99.90;;;;;;5054549;28;20221;-54
2023/07/18 04:54:19;;;;;;;6.00;3.70;;;17.40;99.90;;;;;;5054368;28;20229;-56
2023/07/18 04:56:47;;;;;;;5.50;3.53;;;17.30;99.90;;;;;;5053973;28;20293;-57
2023/07/18 04:59:15;;;;;;;5.32;3.35;;;17.00;99.90;;;;;;5041563;28;20229;-57
2023/07/18 05:01:43;;;;;;;5.57;3.60;;;17.00;99.90;;;;;;5050285;28;20594;-57
2023/07/18 05:04:12;;;;;;;5.30;3.88;;;17.10;99.90;;;;;;5022026;28;20269;-59
2023/07/18 05:06:40;;;;;;;5.22;4.05;;;17.30;99.90;;;;;;5046326;28;20245;-54
2023/07/18 05:09:09;;;;;;;5.13;3.50;;;17.40;99.90;;;;;;5045560;28;20240;-54
2023/07/18 05:11:37;;;;;;;3.80;3.50;;;17.50;99.90;;;;;;5053969;28;20225;-54
2023/07/18 05:14:05;;;;;;;5.00;3.35;;;17.60;99.90;;;;;;5037339;28;20202;-56
2023/07/18 05:16:33;;;;;;;3.92;3.50;;;17.70;99.90;;;;;;5044055;28;20252;-57
2023/07/18 05:19:01;;;;;;;7.15;3.25;;;17.70;99.90;;;;;;5040187;28;20280;-59
2023/07/18 05:21:30;;;;;;;6.38;3.35;;;17.90;99.90;;;;;;5048489;28;20316;-56
2023/07/18 05:23:58;;;;;;;5.38;3.35;;;18.00;99.90;;;;;;5039044;28;20241;-58
2023/07/18 05:26:26;;;;;;;4.22;3.40;;;18.10;99.90;;;;;;5048548;28;20218;-57
2023/07/18 05:28:54;;;;;;;4.55;3.33;;;18.20;99.90;;;;;;5043724;28;20206;-58
2023/07/18 05:31:22;;;;;;;5.05;3.65;;;18.20;99.90;;;;;;5053395;28;20225;-57
2023/07/18 05:33:51;;;;;;;6.60;3.50;;;18.30;99.90;;;;;;5040604;28;20212;-57
2023/07/18 05:36:20;;;;;;;5.18;3.53;;;18.30;99.90;;;;;;5042107;28;20206;-57
2023/07/18 05:38:49;;;;;;;6.72;3.33;;;18.30;99.90;;;;;;5041730;28;20821;-57
2023/07/18 05:41:17;;;;;;;5.40;3.65;;;18.30;99.90;;;;;;5039716;28;20308;-57
2023/07/18 05:43:45;;;;;;;8.88;3.58;;;18.30;99.90;;;;;;5037402;28;20237;-56
2023/07/18 05:46:13;;;;;;;4.78;3.28;;;18.40;99.90;;;;;;5037530;28;20304;-55
2023/07/18 05:48:41;;;;;;;7.18;3.78;;;18.50;99.90;;;;;;5046259;28;20217;-56
2023/07/18 05:51:09;;;;;;;7.65;3.70;;;18.60;99.90;;;;;;5040656;28;20317;-58
2023/07/18 05:53:37;;;;;;;7.22;3.63;;;18.70;99.90;;;;;;5032483;28;20665;-59
2023/07/18 05:56:07;;;;;;;10.63;4.28;;;18.80;99.90;;;;;;5023345;28;20251;-58
2023/07/18 05:58:35;;;;;;;5.25;3.58;;;18.80;99.90;;;;;;5034943;28;20236;-57
2023/07/18 06:01:03;;;;;;;5.00;3.58;;;18.80;99.90;;;;;;5045108;28;20308;-57
2023/07/18 06:03:31;;;;;;;8.68;4.20;;;18.70;99.90;;;;;;5042781;28;20223;-57
2023/07/18 06:05:59;;;;;;;8.65;4.28;;;18.80;99.90;;;;;;5050782;28;20225;-58
2023/07/18 06:08:27;;;;;;;5.38;3.97;;;18.80;99.90;;;;;;5042665;28;20206;-56
2023/07/18 06:10:58;;;;;;;6.28;3.85;;;18.90;99.90;;;;;;5044182;28;20304;-58
2023/07/18 06:13:27;;;;;;;6.20;3.85;;;18.90;99.90;;;;;;5033038;28;20237;-61
2023/07/18 06:15:55;;;;;;;5.45;3.90;;;19.00;99.90;;;;;;5041111;28;20669;-58
2023/07/18 06:18:24;;;;;;;7.10;3.63;;;19.10;99.90;;;;;;5046605;28;20657;-57
2023/07/18 06:20:51;;;;;;;10.23;4.28;;;19.10;99.90;;;;;;5052303;28;20257;-56
2023/07/18 06:23:19;;;;;;;9.75;3.70;;;19.20;99.90;;;;;;5048146;28;20236;-57
2023/07/18 06:25:47;;;;;;;8.40;3.67;;;19.20;99.90;;;;;;5051496;28;20228;-59
2023/07/18 06:28:15;;;;;;;7.43;3.40;;;19.30;99.90;;;;;;5048645;28;20219;-59
2023/07/18 06:30:45;;;;;;;4.30;3.30;;;19.30;99.90;;;;;;5052156;28;20217;-56
2023/07/18 06:33:13;;;;;;;5.30;3.60;;;19.40;99.90;;;;;;5040060;28;20285;-58
2023/07/18 06:35:42;;;;;;;6.97;2.92;;;19.50;99.90;;;;;;5042705;28;20229;-57
2023/07/18 06:38:10;;;;;;;7.38;3.03;;;19.50;99.90;;;;;;5036592;28;20251;-58
2023/07/18 06:40:38;;;;;;;3.20;2.53;;;19.50;99.90;;;;;;5051600;28;20292;-56
2023/07/18 06:43:06;;;;;;;3.35;2.65;;;19.50;99.90;;;;;;5040863;28;20206;-57
2023/07/18 06:45:34;;;;;;;3.78;2.67;;;19.60;99.90;;;;;;5036154;28;20296;-56
2023/07/18 06:48:03;;;;;;;3.40;2.83;;;19.60;99.90;;;;;;5048645;28;20565;-56
2023/07/18 06:50:31;;;;;;;5.28;3.00;;;19.60;99.90;;;;;;5038740;28;20322;-54
2023/07/18 06:52:59;;;;;;;4.10;2.70;;;19.70;99.90;;;;;;5041154;28;20202;-56
2023/07/18 06:55:27;;;;;;;3.15;2.65;;;19.70;99.90;;;;;;5031962;28;20234;-58
2023/07/18 06:57:55;;;;;;;7.53;3.05;;;19.80;99.90;;;;;;5048432;28;20201;-57
2023/07/18 07:00:23;;;;;;;5.15;2.97;;;19.90;99.90;;;;;;5034919;28;20275;-56
2023/07/18 07:02:52;;;;;;;3.33;2.55;;;19.90;99.90;;;;;;5033033;28;20205;-56
2023/07/18 07:05:21;;;;;;;8.02;3.22;;;20.00;99.90;;;;;;5042630;28;20297;-56
2023/07/18 07:07:49;;;;;;;2.63;2.40;;;20.00;99.90;;;;;;5041290;28;20218;-60
2023/07/18 07:10:17;;;;;;;9.25;2.65;;;20.10;99.90;;;;;;5049785;28;20221;-58
2023/07/18 07:12:45;;;;;;;5.50;2.72;;;20.10;99.90;;;;;;5042522;28;20237;-58
2023/07/18 07:15:13;;;;;;;5.45;2.88;;;20.20;99.90;;;;;;5042341;28;20197;-60
2023/07/18 07:17:41;;;;;;;3.78;2.60;;;20.20;99.90;;;;;;5032835;28;20206;-60
2023/07/18 07:20:12;;;;;;;4.63;2.28;;;20.20;99.90;;;;;;5031079;28;20272;-61
2023/07/18 07:22:43;;;;;;;3.78;2.35;;;20.30;99.90;;;;;;5028723;28;20206;-59
2023/07/18 07:25:13;;;;;;;4.60;2.15;;;20.30;99.90;;;;;;5030134;28;20260;-58
2023/07/18 07:27:44;;;;;;;2.63;2.33;;;20.40;99.90;;;;;;5030503;28;20222;-58
2023/07/18 07:30:15;;;;;;;6.80;1.90;;;20.50;99.90;;;;;;5027074;28;20222;-59
2023/07/18 07:32:43;;;;;;;5.05;2.15;;;20.50;99.90;;;;;;5030110;28;20206;-60
2023/07/18 07:35:13;;;;;;;3.42;2.17;;;20.60;99.90;;;;;;5039437;28;20259;-61
2023/07/18 07:37:42;;;;;;;5.65;2.40;;;20.70;99.90;;;;;;5034020;28;20212;-59
2023/07/18 07:40:11;;;;;;;4.53;2.10;;;20.70;99.90;;;;;;5042735;28;20233;-58
2023/07/18 07:42:40;;;;;;;2.45;1.70;;;20.80;99.90;;;;;;5046315;28;21042;-58
2023/07/18 07:45:08;;;;;;;2.28;1.90;;;20.90;99.90;;;;;;5041817;28;20240;-60
2023/07/18 07:47:37;;;;;;;3.15;1.90;;;21.00;99.90;;;;;;5050076;28;20311;-60
2023/07/18 07:50:06;;;;;;;3.25;2.17;;;21.10;99.90;;;;;;5034355;28;20217;-59
2023/07/18 07:52:34;;;;;;;2.20;1.90;;;21.10;99.90;;;;;;5043411;28;20198;-59
2023/07/18 07:55:04;;;;;;;3.67;1.95;;;21.20;99.90;;;;;;5035644;28;20296;-60
2023/07/18 07:57:32;;;;;;;1.67;1.58;;;21.30;99.90;;;;;;5037707;28;20251;-60
2023/07/18 08:00:00;;;;;;;4.55;1.95;;;21.40;99.90;;;;;;5042558;28;20233;-60
2023/07/18 08:02:28;;;;;;;2.33;1.60;;;21.50;99.90;;;;;;5111183;22;20296;-56
2023/07/18 08:04:56;;;;;;;2.28;2.08;;;21.60;99.90;;;;;;5109413;28;20822;-57
2023/07/18 08:07:24;;;;;;;3.75;1.63;;;21.70;99.90;;;;;;5110437;28;20227;-57
2023/07/18 08:09:52;;;;;;;2.05;1.85;;;21.70;99.90;;;;;;5111113;28;20642;-58
2023/07/18 08:12:22;;;;;;;2.67;2.00;;;21.80;99.90;;;;;;5111120;28;20389;-57
2023/07/18 08:14:50;;;;;;;4.53;2.20;;;21.90;99.90;;;;;;5110748;28;20256;-55
2023/07/18 08:17:17;;;;;;;4.05;2.00;;;22.00;99.90;;;;;;5111480;28;20196;-57
2023/07/18 08:19:46;;;;;;;5.07;1.98;;;22.10;99.90;;;;;;5110632;28;20196;-56
2023/07/18 08:22:14;;;;;;;2.20;2.10;;;22.10;99.90;;;;;;5112560;28;20247;-56
2023/07/18 08:24:42;;;;;;;3.22;1.80;;;22.20;99.90;;;;;;5113592;28;20264;-57
2023/07/18 08:27:10;;;;;;;5.72;1.95;;;22.30;99.90;;;;;;5115379;28;20655;-57
2023/07/18 08:29:41;;;;;;;4.93;2.05;;;22.40;99.90;;;;;;5114408;28;20203;-57
2023/07/18 08:32:10;;;;;;;2.63;1.85;;;22.40;99.90;;;;;;5097908;28;20762;-58
2023/07/18 08:34:38;;;;;;;5.95;2.40;;;22.50;99.90;;;;;;5115592;28;20204;-58
2023/07/18 08:37:08;;;;;;;3.42;1.98;;;22.50;99.90;;;;;;5115745;28;20274;-59
2023/07/18 08:39:36;;;;;;;5.07;2.40;;;22.60;99.90;;;;;;5114969;28;20218;-58
2023/07/18 08:42:05;;;;;;;6.63;2.38;;;22.60;99.90;;;;;;5114723;28;20223;-58
2023/07/18 08:44:33;;;;;;;5.07;2.10;;;22.80;99.90;;;;;;5114851;28;20278;-57
2023/07/18 08:47:05;;;;;;;3.58;1.90;;;22.90;99.90;;;;;;5115214;28;20306;-57
2023/07/18 08:49:35;;;;;;;3.33;1.75;;;23.10;99.90;;;;;;5115126;28;20282;-57
2023/07/18 08:52:04;;;;;;;4.15;1.63;;;23.20;99.90;;;;;;5114948;28;20898;-57
2023/07/18 08:54:34;;;;;;;4.68;2.20;;;23.40;99.90;;;;;;5114761;28;20210;-57
2023/07/18 08:57:03;;;;;;;3.75;1.77;;;23.40;99.90;;;;;;5114811;28;20191;-58
2023/07/18 08:59:31;;;;;;;5.45;2.05;;;23.50;99.90;;;;;;5114937;28;20286;-57
2023/07/18 09:01:59;;;;;;;3.25;1.88;;;23.50;99.90;;;;;;5114650;28;20228;-57
2023/07/18 09:04:28;;;;;;;2.35;1.60;;;23.60;99.90;;;;;;5114682;28;20206;-59
2023/07/18 09:06:57;;;;;;;5.28;1.88;;;23.60;99.90;;;;;;5114470;28;20253;-57
2023/07/18 09:09:25;;;;;;;4.13;1.58;;;23.70;99.90;;;;;;5114565;28;20286;-56
2023/07/18 09:11:56;;;;;;;8.13;2.10;;;23.80;99.90;;;;;;5114366;28;20734;-57
2023/07/18 09:14:29;;;;;;;5.75;1.90;;;24.00;99.90;;;;;;5114298;28;20842;-55
2023/07/18 09:17:00;;;;;;;2.10;1.90;;;24.20;99.90;;;;;;5114434;28;20226;-57
2023/07/18 09:19:39;;;;;;;4.13;1.67;;;24.40;99.90;;;;;;5114408;28;20207;-57
2023/07/18 09:22:08;;;;;;;3.22;1.70;;;24.60;99.90;;;;;;5114149;28;20298;-57
2023/07/18 09:24:36;;;;;;;4.40;1.65;;;24.70;99.90;;;;;;5114238;28;20209;-57
2023/07/18 09:27:05;;;;;;;3.22;1.63;;;24.80;99.90;;;;;;5114377;28;20195;-57
2023/07/18 09:29:33;;;;;;;2.03;1.60;;;25.00;99.90;;;;;;5113511;27;20200;-58
2023/07/18 09:32:01;;;;;;;3.65;1.88;;;25.10;99.90;;;;;;5119233;27;20237;-59
2023/07/18 09:34:29;;;;;;;2.15;1.70;;;25.30;99.90;;;;;;5113149;28;20203;-59
2023/07/18 09:36:59;;;;;;;1.58;1.48;;;25.40;99.90;;;;;;5112316;27;20210;-58
2023/07/18 09:39:27;;;;;;;2.92;1.75;;;25.50;99.90;;;;;;5121882;27;20203;-58
2023/07/18 09:41:56;;;;;;;2.33;1.52;;;25.50;99.90;;;;;;5113908;28;20227;-58
2023/07/18 09:44:24;;;;;;;2.58;1.75;;;25.60;99.90;;;;;;5115925;27;20199;-58
2023/07/18 09:47:00;;;;;;;1.80;1.58;;;25.70;99.40;;;;;;5116385;27;20218;-58
2023/07/18 09:49:29;;;;;;;2.80;1.77;;;25.60;96.90;;;;;;5113795;28;20230;-58
2023/07/18 09:52:04;;;;;;;2.25;1.83;;;25.60;96.50;;;;;;5113951;28;20257;-58
2023/07/18 09:54:31;;;;;;;2.25;2.00;;;25.70;97.80;;;;;;5113595;28;20990;-58
2023/07/18 09:57:01;;;;;;;3.40;1.80;;;25.90;96.80;;;;;;5112824;28;20252;-58
2023/07/18 09:59:29;;;;;;;3.60;1.95;;;26.10;96.40;;;;;;5113095;28;20199;-57
2023/07/18 10:01:57;;;;;;;6.72;1.80;;;26.30;97.20;;;;;;5113291;28;20287;-58
2023/07/18 10:04:24;;;;;;;6.82;2.28;;;26.40;94.90;;;;;;5113667;28;20252;-58
2023/07/18 10:06:55;;;;;;;2.90;1.80;;;26.40;94.30;;;;;;5113116;28;20199;-57
2023/07/18 10:09:27;;;;;;;3.88;1.48;;;26.40;94.40;;;;;;5113510;28;20573;-57
2023/07/18 10:12:08;;;;;;;1.98;1.35;;;26.50;94.40;;;;;;5114221;27;20240;-57
2023/07/18 10:14:49;;;;;;;3.40;1.63;;;26.50;93.40;;;;;;5113215;28;20238;-58
2023/07/18 10:17:33;;;;;;;1.77;1.67;;;26.60;92.70;;;;;;5114065;27;20200;-57
2023/07/18 10:20:04;;;;;;;2.35;1.55;;;26.70;92.50;;;;;;5113175;28;20226;-57
2023/07/18 10:22:32;;;;;;;2.00;1.88;;;26.80;93.10;;;;;;5112924;28;20250;-58
2023/07/18 10:25:06;;;;;;;4.78;1.98;;;27.00;92.10;;;;;;5112772;28;20196;-57
2023/07/18 10:27:38;;;;;;;4.32;2.00;;;27.10;92.70;;;;;;5113255;28;20199;-57
2023/07/18 10:30:07;;;;;;;2.17;1.92;;;27.00;91.70;;;;;;5112963;28;20694;-58
2023/07/18 10:32:37;;;;;;;2.92;1.73;;;27.00;91.60;;;;;;5112929;28;20592;-57
2023/07/18 10:35:09;;;;;;;2.17;1.98;;;26.90;92.10;;;;;;5112548;28;20199;-57
2023/07/18 10:37:37;;;;;;;2.63;2.00;;;26.80;91.40;;;;;;5113182;28;20231;-58
2023/07/18 10:40:09;;;;;;;2.45;1.63;;;26.80;92.50;;;;;;5113066;28;20200;-58
2023/07/18 10:42:37;;;;;;;4.00;1.75;;;26.70;92.10;;;;;;5112413;28;20720;-58
2023/07/18 10:45:06;;;;;;;5.53;1.75;;;26.80;93.20;;;;;;5110200;28;20200;-58
2023/07/18 10:47:36;;;;;;;2.80;1.60;;;27.00;93.20;;;;;;5111251;28;20195;-57
2023/07/18 10:50:05;;;;;;;5.72;1.88;;;27.30;94.70;;;;;;5112642;28;20602;-56
2023/07/18 10:52:34;;;;;;;2.42;1.90;;;27.50;94.30;;;;;;5112592;28;20276;-57
2023/07/18 10:55:04;;;;;;;2.95;1.88;;;27.80;93.30;;;;;;5112417;28;20195;-58
2023/07/18 10:57:34;;;;;;;1.48;1.38;;;27.90;91.60;;;;;;5112517;28;20239;-56
2023/07/18 11:00:03;;;;;;;6.57;2.10;;;27.90;91.50;;;;;;5112402;28;20283;-58
2023/07/18 11:02:36;;;;;;;3.50;2.03;;;27.90;91.50;;;;;;5111870;28;20231;-56
2023/07/18 11:05:10;;;;;;;2.00;1.65;;;28.00;89.10;;;;;;5112418;28;20199;-58
2023/07/18 11:07:40;;;;;;;3.13;1.70;;;28.30;87.80;;;;;;5112701;27;20206;-58
2023/07/18 11:10:09;;;;;;;2.67;1.90;;;28.90;90.50;;;;;;5112061;28;20216;-59
2023/07/18 11:12:38;;;;;;;2.83;1.63;;;29.30;85.80;;;;;;5112016;28;20647;-58
2023/07/18 11:15:07;;;;;;;4.50;2.03;;;29.70;85.70;;;;;;5112389;28;20227;-58
2023/07/18 11:17:35;;;;;;;2.33;1.90;;;30.10;83.30;;;;;;5111734;28;20685;-57
2023/07/18 11:20:04;;;;;;;3.05;1.83;;;30.10;81.30;;;;;;5111320;27;20199;-58
2023/07/18 11:22:32;;;;;;;2.63;1.60;;;30.30;79.30;;;;;;5112118;28;20247;-58
2023/07/18 11:25:00;;;;;;;4.88;2.03;;;30.00;78.80;;;;;;5109997;28;20684;-58
2023/07/18 11:27:32;;;;;;;5.75;1.90;;;29.80;81.00;;;;;;5111511;28;20658;-58
2023/07/18 11:30:01;;;;;;;2.33;1.92;;;29.60;78.70;;;;;;5112380;28;20223;-58
2023/07/18 11:32:47;;;;;;;5.25;1.88;;;29.80;83.30;;;;;;5112142;28;20246;-57
2023/07/18 11:35:19;;;;;;;4.07;2.03;;;30.20;77.50;;;;;;5111729;28;20199;-58
2023/07/18 11:37:50;;;;;;;1.60;1.45;;;30.60;75.70;;;;;;5111996;28;20230;-58
2023/07/18 11:40:19;;;;;;;2.40;1.80;;;30.70;75.70;;;;;;5111708;28;20222;-57
2023/07/18 11:42:48;;;;;;;2.40;1.50;;;31.10;75.00;;;;;;5111883;28;20287;-57
2023/07/18 11:45:18;;;;;;;1.95;1.75;;;31.20;76.50;;;;;;5110604;28;20211;-58
2023/07/18 11:47:49;;;;;;;1.83;1.60;;;31.60;75.20;;;;;;5114388;28;20195;-58
2023/07/18 11:50:17;;;;;;;3.35;1.75;;;32.00;80.70;;;;;;5111746;28;20211;-58
2023/07/18 11:52:46;;;;;;;1.75;1.65;;;32.00;73.30;;;;;;5112169;28;20642;-57
2023/07/18 11:55:14;;;;;;;2.05;1.63;;;32.00;73.30;;;;;;5111715;28;20203;-57
2023/07/18 11:57:43;;;;;;;2.13;1.77;;;32.10;76.00;;;;;;5113776;28;20256;-56
2023/07/18 12:00:12;;;;;;;3.35;2.00;;;32.20;71.90;;;;;;5116059;28;20187;-56
2023/07/18 12:02:43;;;;;;;4.70;1.90;;;32.30;70.70;;;;;;5115590;28;20258;-57
2023/07/18 12:05:13;;;;;;;2.70;2.00;;;32.40;73.60;;;;;;5115765;28;20199;-58
2023/07/18 12:07:45;;;;;;;2.35;1.70;;;32.50;70.40;;;;;;5116044;28;20203;-57
2023/07/18 12:10:14;;;;;;;3.65;1.75;;;32.50;69.40;;;;;;5111909;28;20222;-57
2023/07/18 12:12:43;;;;;;;4.95;2.03;;;32.40;71.10;;;;;;5115663;28;20234;-57
2023/07/18 12:15:12;;;;;;;1.88;1.77;;;32.50;71.70;;;;;;5113784;28;20207;-57
2023/07/18 12:17:41;;;;;;;1.88;1.77;;;32.50;68.80;;;;;;5115682;28;20200;-58
2023/07/18 12:20:11;;;;;;;3.55;1.60;;;32.50;69.20;;;;;;5098816;28;20662;-58
2023/07/18 12:22:39;;;;;;;2.33;1.60;;;32.50;67.70;;;;;;5115399;28;20219;-55
2023/07/18 12:25:08;;;;;;;2.08;1.75;;;32.50;67.10;;;;;;5115130;28;20749;-55
2023/07/18 12:27:36;;;;;;;2.30;2.10;;;32.60;67.80;;;;;;5114988;28;20214;-57
2023/07/18 12:30:06;;;;;;;2.05;1.80;;;32.70;67.00;;;;;;5115433;28;20310;-56
2023/07/18 12:32:34;;;;;;;4.43;2.00;;;32.70;67.30;;;;;;5114646;28;20215;-55
2023/07/18 12:35:03;;;;;;;5.60;2.17;;;32.80;69.80;;;;;;5114939;28;20203;-54
2023/07/18 12:37:31;;;;;;;2.42;1.83;;;33.00;66.40;;;;;;5114284;28;20210;-57
2023/07/18 12:39:59;;;;;;;4.75;1.80;;;33.10;66.70;;;;;;5114797;28;20199;-56
2023/07/18 12:42:27;;;;;;;7.65;2.33;;;33.20;71.40;;;;;;5115067;28;20253;-59
2023/07/18 12:44:55;;;;;;;3.17;1.85;;;33.40;68.90;;;;;;5115008;28;20638;-57
2023/07/18 12:47:23;;;;;;;3.20;2.00;;;33.50;68.60;;;;;;5115102;28;20232;-57
2023/07/18 12:49:51;;;;;;;3.80;1.88;;;33.70;70.00;;;;;;5115107;28;20846;-56
2023/07/18 12:52:23;;;;;;;3.35;2.00;;;33.80;70.90;;;;;;5114711;28;20294;-55
2023/07/18 12:54:51;;;;;;;7.32;2.17;;;33.70;67.50;;;;;;5114606;28;20199;-57